Accra, Ghana

9:02 PM GMT on September 27, 2016 (GMT +0000)
Kotoka International | | Change Station

Elev 226 ft 5.61 °N, 0.17 °W | Updated 1 hour ago

Overcast
Overcast
79 °F
Feels Like 79 °F
N
12
Wind Variable Wind from SSW

Today
High -- | Low -- °F
--% Chance of Precip.
Yesterday
High -- | Low -- °F
Precip. -- in
Pressure 29.92 in
Visibility 6.2 miles
Clouds Few 1000 ft
Scattered Clouds 1600 ft
Overcast 1800 ft
Dew Point 75 °F
Humidity 89%
Rainfall 0.00 in
Snow Depth Not available.
5:48 AM 5:54 PM
Waning Crescent, 9% visible
METAR DGAA 272000Z 20010KT 9999 FEW010 SCT016 OVC018 26/24 Q1013 NOSIG
Pressure 29.92 in
Visibility 6.2 miles
Clouds Few 1000 ft
Scattered Clouds 1600 ft
Overcast 1800 ft
Dew Point 75 °F
Humidity 89%
Rainfall 0.00 in
Snow Depth Not available.
5:48 AM 5:54 PM
Waning Crescent, 9% visible
METAR DGAA 272000Z 20010KT 9999 FEW010 SCT016 OVC018 26/24 Q1013 NOSIG

10-Day Weather Forecast

No radar image for this location.
×

Almanac

Astronomy

Sep. 27, 2016 Rise Set
Actual Time
Civil Twilight
Nautical Twilight
Astronomical Twilight
Moon
Length of Visible Light
Length of Day
Tomorrow will be .
, % of the Moon is Illuminated

Today's Extremes

Country Highs Country Lows

Community

WunderPhotos

Upload Photos

1,942,154 photos uploaded!

WunderBlog® & News

Nearby

Air Quality

  Air Quality AQ Index Pollutant
Not available.

Snow Depth

Station Depth Elevation

Earthquake Activity

City Distance Mag. Time & Date
Minimum magnitude displayed is 2.5.

Coastal Water Temperatures

Place Temperature

Stations

Nearby Weather Stations

Station Location Temp. Windchill Dew Point Humidity Wind Precip. Elev Updated Type